createdAt,value
2022-10-08T00:03:27.993Z,1023.6
2022-10-08T00:08:28.148Z,1023.7
2022-10-08T00:13:27.972Z,1023.6
2022-10-08T00:18:28.083Z,1023.6
2022-10-08T00:23:28.168Z,1023.6
2022-10-08T00:28:28.013Z,1023.5
2022-10-08T00:33:27.860Z,1023.5
2022-10-08T00:38:28.025Z,1023.3
2022-10-08T00:43:27.894Z,1023.3
2022-10-08T00:48:27.986Z,1023.3
2022-10-08T00:53:27.969Z,1023.2
2022-10-08T00:58:27.919Z,1023.1
2022-10-08T01:03:28.174Z,1023.0
2022-10-08T01:08:28.117Z,1022.9
2022-10-08T01:13:27.822Z,1022.9
2022-10-08T01:18:27.957Z,1022.9
2022-10-08T01:23:28.012Z,1022.8
2022-10-08T01:28:27.910Z,1022.8
2022-10-08T01:33:27.804Z,1022.8
2022-10-08T01:38:28.140Z,1022.8
2022-10-08T01:43:27.876Z,1022.7
2022-10-08T01:48:27.888Z,1022.7
2022-10-08T01:53:27.948Z,1022.7
2022-10-08T01:58:28.273Z,1022.6
2022-10-08T02:03:27.785Z,1022.7
2022-10-08T02:08:27.763Z,1022.7
2022-10-08T02:13:27.702Z,1022.7
2022-10-08T02:18:27.726Z,1022.7
2022-10-08T02:23:27.994Z,1022.7
2022-10-08T02:28:27.828Z,1022.7
2022-10-08T02:33:27.684Z,1022.7
2022-10-08T02:38:27.914Z,1022.6
2022-10-08T02:43:28.138Z,1022.5
2022-10-08T02:48:27.757Z,1022.6
2022-10-08T02:53:27.697Z,1022.6
2022-10-08T02:58:27.641Z,1022.6
2022-10-08T03:03:27.692Z,1022.6
2022-10-08T03:08:27.849Z,1022.6
2022-10-08T03:13:27.767Z,1022.6
2022-10-08T03:18:27.754Z,1022.6
2022-10-08T03:23:27.975Z,1022.6
2022-10-08T03:28:27.624Z,1022.5
2022-10-08T03:33:27.595Z,1022.5
2022-10-08T03:38:27.789Z,1022.5
2022-10-08T03:43:27.639Z,1022.6
2022-10-08T03:48:27.577Z,1022.5
2022-10-08T03:53:27.963Z,1022.5
2022-10-08T03:58:27.832Z,1022.4
2022-10-08T04:03:27.625Z,1022.3
2022-10-08T04:08:27.544Z,1022.3
2022-10-08T04:13:27.597Z,1022.3
2022-10-08T04:18:27.570Z,1022.4
2022-10-08T04:23:27.740Z,1022.3
2022-10-08T04:28:27.615Z,1022.3
2022-10-08T04:33:27.512Z,1022.3
2022-10-08T04:38:27.690Z,1022.3
2022-10-08T04:43:27.678Z,1022.3
2022-10-08T04:48:27.451Z,1022.3
2022-10-08T04:53:27.525Z,1022.3
2022-10-08T04:58:27.597Z,1022.2
2022-10-08T05:03:27.599Z,1022.3
2022-10-08T05:08:27.409Z,1022.2
2022-10-08T05:13:27.507Z,1022.2
2022-10-08T05:18:27.617Z,1022.2
2022-10-08T05:23:27.678Z,1022.3
2022-10-08T05:28:27.461Z,1022.2
2022-10-08T05:33:27.427Z,1022.3
2022-10-08T05:38:31.395Z,1022.3
2022-10-08T05:43:27.405Z,1022.3
2022-10-08T05:48:27.380Z,1022.4
2022-10-08T05:53:27.556Z,1022.4
2022-10-08T05:58:30.363Z,1022.5
2022-10-08T06:03:27.544Z,1022.4
2022-10-08T06:08:27.594Z,1022.4
2022-10-08T06:13:27.439Z,1022.3
2022-10-08T06:18:27.438Z,1022.5
2022-10-08T06:23:27.320Z,1022.5
2022-10-08T06:28:27.382Z,1022.5
2022-10-08T06:33:27.589Z,1022.5
2022-10-08T06:38:27.402Z,1022.6
2022-10-08T06:43:27.451Z,1022.5
2022-10-08T06:48:27.688Z,1022.5
2022-10-08T06:53:27.373Z,1022.6
2022-10-08T06:58:27.454Z,1022.5
2022-10-08T07:03:27.673Z,1022.4
2022-10-08T07:08:27.247Z,1022.5
2022-10-08T07:13:27.243Z,1022.5
2022-10-08T07:18:27.368Z,1022.6
2022-10-08T07:23:27.259Z,1022.6
2022-10-08T07:28:27.370Z,1022.4
2022-10-08T07:33:27.516Z,1022.4
2022-10-08T07:38:27.321Z,1022.5
2022-10-08T07:43:27.451Z,1022.4
2022-10-08T07:48:31.553Z,1022.4
2022-10-08T07:53:27.340Z,1022.4
2022-10-08T07:58:27.234Z,1022.3
2022-10-08T08:03:27.152Z,1022.3
2022-10-08T08:08:28.212Z,1022.4
2022-10-08T08:13:27.085Z,1022.4
2022-10-08T08:18:27.189Z,1022.5
2022-10-08T08:23:27.198Z,1022.5
2022-10-08T08:28:27.283Z,1022.4
2022-10-08T08:33:27.344Z,1022.4
2022-10-08T08:38:27.108Z,1022.4
2022-10-08T08:43:27.101Z,1022.4
2022-10-08T08:48:27.391Z,1022.4
2022-10-08T08:53:28.748Z,1022.3
2022-10-08T08:58:27.096Z,1022.2
2022-10-08T09:03:27.052Z,1022.2
2022-10-08T09:08:27.050Z,1022.2
2022-10-08T09:13:27.113Z,1022.3
2022-10-08T09:18:27.221Z,1022.1
2022-10-08T09:23:27.052Z,1022.2
2022-10-08T09:28:27.139Z,1022.1
2022-10-08T09:38:26.991Z,1022.1
2022-10-08T09:43:27.145Z,1022.0
2022-10-08T09:48:27.328Z,1022.1
2022-10-08T09:53:27.090Z,1022.0
2022-10-08T09:58:27.257Z,1022.0
2022-10-08T10:03:27.232Z,1022.1
2022-10-08T10:08:27.131Z,1022.1
2022-10-08T10:13:27.098Z,1022.0
2022-10-08T10:18:26.925Z,1022.0
2022-10-08T10:23:26.965Z,1022.0
2022-10-08T10:28:27.416Z,1022.0
2022-10-08T10:33:27.106Z,1022.0
2022-10-08T10:38:26.920Z,1021.9
2022-10-08T10:43:27.234Z,1021.9
2022-10-08T10:48:27.144Z,1021.9
2022-10-08T10:53:26.935Z,1021.8
2022-10-08T10:58:26.927Z,1021.6
2022-10-08T11:03:36.330Z,1021.6
2022-10-08T11:08:26.910Z,1021.5
2022-10-08T11:13:26.904Z,1021.4
2022-10-08T11:18:26.850Z,1021.4
2022-10-08T11:23:26.863Z,1021.3
2022-10-08T11:28:27.296Z,1021.3
2022-10-08T11:33:26.855Z,1021.3
2022-10-08T11:38:26.874Z,1021.2
2022-10-08T11:43:27.221Z,1021.1
2022-10-08T11:48:27.510Z,1021.1
2022-10-08T11:53:26.798Z,1021.1
2022-10-08T11:58:26.797Z,1021.0
2022-10-08T12:03:27.399Z,1021.0
2022-10-08T12:08:26.818Z,1020.8
2022-10-08T12:13:33.168Z,1020.8
2022-10-08T12:18:26.919Z,1020.8
2022-10-08T12:23:26.893Z,1020.8
2022-10-08T12:28:26.925Z,1020.8
2022-10-08T12:33:26.876Z,1020.8
2022-10-08T12:38:26.820Z,1020.7
2022-10-08T12:43:27.125Z,1020.7
2022-10-08T12:48:26.904Z,1020.7
2022-10-08T12:53:26.894Z,1020.7
2022-10-08T12:58:30.901Z,1020.7
2022-10-08T13:03:26.877Z,1020.7
2022-10-08T13:08:27.033Z,1020.7
2022-10-08T13:13:26.632Z,1020.7
2022-10-08T13:18:27.205Z,1020.7
2022-10-08T13:23:26.784Z,1020.7
2022-10-08T13:28:48.472Z,1020.5
2022-10-08T13:33:27.021Z,1020.5
2022-10-08T13:38:27.146Z,1020.7
2022-10-08T13:43:26.641Z,1020.6
2022-10-08T13:48:26.833Z,1020.8
2022-10-08T13:53:26.797Z,1020.7
2022-10-08T13:58:26.888Z,1020.7
2022-10-08T14:03:26.817Z,1020.7
2022-10-08T14:08:26.603Z,1020.7
2022-10-08T14:13:26.635Z,1020.7
2022-10-08T14:18:26.655Z,1020.7
2022-10-08T14:23:26.687Z,1020.7
2022-10-08T14:28:26.849Z,1020.7
2022-10-08T14:33:26.723Z,1020.7
2022-10-08T14:38:26.604Z,1020.6
2022-10-08T14:43:27.850Z,1020.5
2022-10-08T14:48:26.813Z,1020.4
2022-10-08T14:53:26.570Z,1020.4
2022-10-08T14:58:26.567Z,1020.5
2022-10-08T15:03:26.608Z,1020.5
2022-10-08T15:08:26.748Z,1020.5
2022-10-08T15:13:26.481Z,1020.5
2022-10-08T15:18:26.589Z,1020.6
2022-10-08T15:23:26.772Z,1020.6
2022-10-08T15:28:26.783Z,1020.5
2022-10-08T15:33:26.516Z,1020.5
2022-10-08T15:38:26.603Z,1020.7
2022-10-08T15:43:27.671Z,1020.8
2022-10-08T15:48:26.592Z,1020.7
2022-10-08T15:53:26.564Z,1020.6
2022-10-08T15:58:49.015Z,1020.7
2022-10-08T16:03:26.603Z,1020.7
2022-10-08T16:08:26.451Z,1020.8
2022-10-08T16:13:27.222Z,1020.8
2022-10-08T16:18:27.505Z,1020.9
2022-10-08T16:23:27.658Z,1021.0
2022-10-08T16:28:27.489Z,1021.0
2022-10-08T16:33:26.419Z,1021.2
2022-10-08T16:38:26.431Z,1021.2
2022-10-08T16:43:26.582Z,1021.2
2022-10-08T16:48:26.458Z,1021.2
2022-10-08T16:53:27.489Z,1021.3
2022-10-08T16:58:26.608Z,1021.4
2022-10-08T17:03:26.674Z,1021.6
2022-10-08T17:08:26.562Z,1021.5
2022-10-08T17:13:26.425Z,1021.5
2022-10-08T17:18:26.609Z,1021.5
2022-10-08T17:23:26.694Z,1021.6
2022-10-08T17:28:26.446Z,1021.7
2022-10-08T17:33:26.367Z,1021.6
2022-10-08T17:38:26.539Z,1021.7
2022-10-08T17:43:26.531Z,1021.6
2022-10-08T17:48:26.445Z,1021.7
2022-10-08T17:53:26.241Z,1021.7
2022-10-08T17:58:27.912Z,1021.8
2022-10-08T18:03:26.358Z,1021.8
2022-10-08T18:08:26.287Z,1021.9
2022-10-08T18:13:26.462Z,1021.9
2022-10-08T18:18:26.394Z,1022.0
2022-10-08T18:23:26.489Z,1022.0
2022-10-08T18:28:26.760Z,1022.0
2022-10-08T18:33:27.108Z,1022.1
2022-10-08T18:38:26.482Z,1022.1
2022-10-08T18:43:26.735Z,1022.2
2022-10-08T18:48:27.086Z,1022.1
2022-10-08T18:53:26.961Z,1022.1
2022-10-08T18:58:37.418Z,1022.2
2022-10-08T19:03:26.359Z,1022.2
2022-10-08T19:08:26.336Z,1022.2
2022-10-08T19:13:26.264Z,1022.3
2022-10-08T19:18:26.173Z,1022.4
2022-10-08T19:23:26.706Z,1022.5
2022-10-08T19:28:26.762Z,1022.6
2022-10-08T19:33:26.271Z,1022.7
2022-10-08T19:38:26.223Z,1022.8
2022-10-08T19:43:26.199Z,1022.9
2022-10-08T19:48:26.155Z,1022.9
2022-10-08T19:53:26.354Z,1022.9
2022-10-08T19:58:26.119Z,1023.0
2022-10-08T20:03:26.093Z,1023.0
2022-10-08T20:08:26.250Z,1023.0
2022-10-08T20:13:26.269Z,1023.0
2022-10-08T20:18:26.292Z,1023.1
2022-10-08T20:23:26.571Z,1023.2
2022-10-08T20:28:40.063Z,1023.2
2022-10-08T20:33:26.251Z,1023.3
2022-10-08T20:38:26.099Z,1023.3
2022-10-08T20:43:26.407Z,1023.3
2022-10-08T20:48:26.348Z,1023.5
2022-10-08T20:53:26.027Z,1023.5
2022-10-08T20:58:26.211Z,1023.6
2022-10-08T21:03:26.907Z,1023.6
2022-10-08T21:08:26.696Z,1023.6
2022-10-08T21:13:26.120Z,1023.7
2022-10-08T21:18:26.440Z,1023.8
2022-10-08T21:23:26.594Z,1023.9
2022-10-08T21:28:26.025Z,1023.8
2022-10-08T21:33:26.239Z,1023.8
2022-10-08T21:38:26.063Z,1023.9
2022-10-08T21:43:25.977Z,1023.9
2022-10-08T21:48:26.001Z,1024.0
2022-10-08T21:53:25.852Z,1023.9
2022-10-08T21:58:26.132Z,1024.0
2022-10-08T22:03:25.932Z,1024.2
2022-10-08T22:08:25.862Z,1024.1
2022-10-08T22:13:25.880Z,1024.2
2022-10-08T22:18:25.840Z,1024.4
2022-10-08T22:23:26.101Z,1024.4
2022-10-08T22:28:25.965Z,1024.5
2022-10-08T22:33:25.794Z,1024.5
2022-10-08T22:38:25.986Z,1024.7
2022-10-08T22:43:25.844Z,1024.6
2022-10-08T22:48:25.848Z,1024.6
2022-10-08T22:53:25.991Z,1024.7
2022-10-08T22:58:25.840Z,1024.8
2022-10-08T23:03:25.998Z,1024.9
2022-10-08T23:08:26.143Z,1024.9
2022-10-08T23:13:25.744Z,1024.9
2022-10-08T23:18:25.998Z,1025.0
2022-10-08T23:23:26.287Z,1025.0
2022-10-08T23:28:25.904Z,1025.1
2022-10-08T23:33:25.776Z,1025.0
2022-10-08T23:38:25.721Z,1025.2
2022-10-08T23:43:25.728Z,1025.2
2022-10-08T23:48:25.742Z,1025.2
2022-10-08T23:53:25.977Z,1025.3
2022-10-08T23:58:25.910Z,1025.3
